Time;durP1;ratioP1;P1;durP2;ratioP2;P2;SDS_P1;SDS_P2;PMS_P1;PMS_P2;Temp;Humidity;BMP_temperature;BMP_pressure;BME280_temperature;BME280_humidity;BME280_pressure;Samples;Min_cycle;Max_cycle;Signal;HPM_P1;HPM_P2
2022/05/09 00:00:26;;;;;;;19.58;4.78;;;7.50;99.90;;;;;;4891213;28;205332;-78
2022/05/09 00:02:53;;;;;;;16.95;4.85;;;7.50;99.90;;;;;;4926362;29;20052;-78
2022/05/09 00:05:22;;;;;;;20.33;4.70;;;7.40;99.90;;;;;;4880009;28;205434;-78
2022/05/09 00:07:48;;;;;;;18.85;4.50;;;7.40;99.90;;;;;;4961987;28;20047;-78
2022/05/09 00:10:18;;;;;;;18.02;4.35;;;7.40;99.90;;;;;;4894452;28;189276;-79
2022/05/09 00:12:44;;;;;;;19.75;4.75;;;7.40;99.90;;;;;;4931468;28;20052;-77
2022/05/09 00:15:11;;;;;;;19.73;4.55;;;7.40;99.90;;;;;;4892474;28;234473;-78
2022/05/09 00:17:38;;;;;;;18.85;5.18;;;7.40;99.90;;;;;;4920483;29;20056;-79
2022/05/09 00:20:05;;;;;;;20.15;4.65;;;7.30;99.90;;;;;;4860911;28;206101;-78
2022/05/09 00:22:41;;;;;;;20.13;5.25;;;7.20;99.90;;;;;;4927644;28;20064;-78
2022/05/09 00:25:07;;;;;;;21.20;5.78;;;7.20;99.90;;;;;;4862455;28;205610;-78
2022/05/09 00:27:33;;;;;;;20.00;4.50;;;7.10;99.90;;;;;;4928228;28;20063;-78
2022/05/09 00:29:59;;;;;;;14.05;4.43;;;7.10;99.90;;;;;;4890721;28;205157;-79
2022/05/09 00:32:25;;;;;;;18.73;4.70;;;7.10;99.90;;;;;;4917707;29;20083;-78
2022/05/09 00:34:52;;;;;;;17.90;4.60;;;7.10;99.90;;;;;;4893881;28;230814;-80
2022/05/09 00:37:20;;;;;;;15.35;4.28;;;7.10;99.90;;;;;;4948100;28;20657;-78
2022/05/09 00:39:48;;;;;;;16.20;4.60;;;7.00;99.90;;;;;;4890997;28;242772;-78
2022/05/09 00:42:14;;;;;;;22.42;5.85;;;7.00;99.90;;;;;;4943153;28;20082;-78
2022/05/09 00:44:41;;;;;;;17.88;5.07;;;6.90;99.90;;;;;;4897436;28;208549;-79
2022/05/09 00:47:08;;;;;;;18.77;5.00;;;6.90;99.90;;;;;;4923123;29;20402;-78
2022/05/09 00:50:02;;;;;;;18.98;4.97;;;6.90;99.90;;;;;;4880293;28;206027;-78
2022/05/09 00:52:36;;;;;;;18.20;4.57;;;6.90;99.90;;;;;;4920947;28;20073;-78
2022/05/09 00:55:08;;;;;;;19.05;5.00;;;6.80;99.90;;;;;;4868139;28;218849;-79
2022/05/09 00:57:57;;;;;;;15.52;4.75;;;6.80;99.90;;;;;;4905392;29;20055;-79
2022/05/09 01:00:25;;;;;;;19.80;4.80;;;6.80;99.90;;;;;;4871771;28;210405;-79
2022/05/09 01:03:18;;;;;;;14.88;4.38;;;6.70;99.90;;;;;;4927484;29;20079;-79
2022/05/09 01:05:50;;;;;;;14.82;4.72;;;6.70;99.90;;;;;;4887977;28;204924;-79
2022/05/09 01:08:17;;;;;;;17.40;4.90;;;6.70;99.90;;;;;;4971176;28;20719;-79
2022/05/09 01:10:44;;;;;;;23.83;5.40;;;6.70;99.90;;;;;;4896098;28;224333;-78
2022/05/09 01:13:14;;;;;;;19.83;4.88;;;6.70;99.90;;;;;;4972467;28;20074;-79
2022/05/09 01:15:43;;;;;;;22.13;5.53;;;6.60;99.90;;;;;;4889390;28;205536;-79
2022/05/09 01:18:12;;;;;;;20.80;5.25;;;6.60;99.90;;;;;;4940533;28;20051;-79
2022/05/09 01:20:38;;;;;;;21.38;5.15;;;6.60;99.90;;;;;;4915565;28;205672;-79
2022/05/09 01:23:07;;;;;;;17.77;5.50;;;6.60;99.90;;;;;;4973428;28;20528;-80
2022/05/09 01:25:33;;;;;;;19.15;4.78;;;6.60;99.90;;;;;;4925320;28;123504;-80
2022/05/09 01:28:00;;;;;;;15.25;4.97;;;6.60;99.90;;;;;;4939345;28;20059;-79
2022/05/09 01:30:39;;;;;;;14.45;4.32;;;6.50;99.90;;;;;;4884059;28;207522;-79
2022/05/09 01:33:12;;;;;;;18.83;5.32;;;6.50;99.90;;;;;;4957541;28;20177;-80
2022/05/09 01:35:43;;;;;;;21.85;4.88;;;6.50;99.90;;;;;;4907397;28;210493;-79
2022/05/09 01:38:28;;;;;;;16.63;4.70;;;6.50;99.90;;;;;;4973279;28;20066;-79
2022/05/09 01:40:54;;;;;;;18.77;5.03;;;6.50;99.90;;;;;;4897937;28;213708;-79
2022/05/09 01:43:36;;;;;;;20.55;4.80;;;6.40;99.90;;;;;;4899377;28;209612;-79
2022/05/09 01:46:11;;;;;;;17.48;5.10;;;6.40;99.90;;;;;;4890591;28;205610;-80
2022/05/09 01:51:23;;;;;;;15.77;5.07;;;6.40;99.90;;;;;;4928713;28;20055;-79
2022/05/09 01:53:51;;;;;;;19.00;5.50;;;6.30;99.90;;;;;;4887530;28;204591;-79
2022/05/09 01:56:18;;;;;;;13.70;4.45;;;6.30;99.90;;;;;;4919549;28;117529;-79
2022/05/09 01:58:45;;;;;;;22.25;5.75;;;6.30;99.90;;;;;;4887796;28;194261;-80
2022/05/09 02:01:11;;;;;;;15.50;5.32;;;6.20;99.90;;;;;;4927765;28;48020;-79
2022/05/09 02:03:37;;;;;;;17.25;5.53;;;6.30;99.90;;;;;;4880496;28;208866;-79
2022/05/09 02:06:03;;;;;;;20.20;5.00;;;6.20;99.90;;;;;;4899657;28;192267;-78
2022/05/09 02:08:30;;;;;;;21.05;5.63;;;6.20;99.90;;;;;;4863731;28;208262;-79
2022/05/09 02:10:56;;;;;;;18.95;5.85;;;6.10;99.90;;;;;;4907884;28;28347;-79
2022/05/09 02:13:22;;;;;;;19.80;5.72;;;6.10;99.90;;;;;;4903393;28;220100;-79
2022/05/09 02:15:48;;;;;;;15.25;5.20;;;6.10;99.90;;;;;;4921317;28;147078;-78
2022/05/09 02:18:15;;;;;;;17.08;5.70;;;6.10;99.90;;;;;;4936377;28;20051;-80
2022/05/09 02:20:41;;;;;;;16.83;5.55;;;6.10;99.90;;;;;;4900729;28;205571;-80
2022/05/09 02:23:08;;;;;;;20.42;5.78;;;6.10;99.90;;;;;;4925733;29;20054;-79
2022/05/09 02:25:36;;;;;;;21.15;5.65;;;6.00;99.90;;;;;;4882320;28;205980;-81
2022/05/09 02:28:06;;;;;;;18.35;5.38;;;6.00;99.90;;;;;;4936798;28;20066;-80
2022/05/09 02:30:33;;;;;;;19.40;5.80;;;6.00;99.90;;;;;;4887155;28;208130;-81
2022/05/09 02:32:59;;;;;;;16.15;5.03;;;5.90;99.90;;;;;;4942054;28;20304;-80
2022/05/09 02:35:25;;;;;;;17.60;5.47;;;5.90;99.90;;;;;;4880236;28;236163;-79
2022/05/09 02:37:52;;;;;;;21.38;5.55;;;5.90;99.90;;;;;;4917921;29;20067;-80
2022/05/09 02:40:19;;;;;;;20.58;5.95;;;5.90;99.90;;;;;;4886482;28;148179;-79
2022/05/09 02:42:45;;;;;;;18.92;5.75;;;5.90;99.90;;;;;;4926456;29;20055;-79
2022/05/09 02:45:12;;;;;;;16.25;5.63;;;5.80;99.90;;;;;;4896292;28;212867;-80
2022/05/09 02:47:40;;;;;;;18.08;5.85;;;5.80;99.90;;;;;;4950548;28;21318;-78
2022/05/09 02:50:08;;;;;;;17.08;5.32;;;5.80;99.90;;;;;;4886294;28;205715;-79
2022/05/09 02:52:36;;;;;;;18.77;5.38;;;5.80;99.90;;;;;;4943404;28;20071;-79
2022/05/09 02:55:05;;;;;;;20.35;5.93;;;5.80;99.90;;;;;;4875676;28;205743;-80
2022/05/09 02:57:32;;;;;;;20.77;7.03;;;5.80;99.90;;;;;;4924669;28;20485;-79
2022/05/09 02:59:58;;;;;;;19.55;5.85;;;5.70;99.90;;;;;;4863441;28;215125;-80
2022/05/09 03:02:24;;;;;;;21.15;5.90;;;5.70;99.90;;;;;;4927684;28;20390;-80
2022/05/09 03:04:50;;;;;;;16.13;5.80;;;5.70;99.90;;;;;;4864509;28;238806;-80
2022/05/09 03:07:18;;;;;;;17.50;5.03;;;5.70;99.90;;;;;;4932214;29;20052;-79
2022/05/09 03:09:47;;;;;;;19.30;5.70;;;5.70;99.90;;;;;;4896572;22;210665;-67
2022/05/09 03:12:14;;;;;;;18.88;5.53;;;5.60;99.90;;;;;;4974398;28;20062;-67
2022/05/09 03:14:40;;;;;;;16.15;5.53;;;5.60;99.90;;;;;;4931999;28;215898;-68
2022/05/09 03:17:08;;;;;;;15.98;5.22;;;5.60;99.90;;;;;;4980946;28;20063;-68
2022/05/09 03:19:34;;;;;;;13.27;4.93;;;5.60;99.90;;;;;;4918424;28;206960;-68
2022/05/09 03:22:01;;;;;;;16.30;5.30;;;5.60;99.90;;;;;;4974638;28;20054;-68
2022/05/09 03:24:27;;;;;;;16.08;5.05;;;5.50;99.90;;;;;;4924694;28;210193;-67
2022/05/09 03:26:53;;;;;;;20.25;5.70;;;5.50;99.90;;;;;;4986485;28;20059;-68
2022/05/09 03:29:20;;;;;;;20.85;5.95;;;5.50;99.90;;;;;;4924835;28;210254;-67
2022/05/09 03:31:47;;;;;;;17.45;5.75;;;5.50;99.90;;;;;;4987228;28;20060;-67
2022/05/09 03:34:14;;;;;;;19.58;5.82;;;5.50;99.90;;;;;;4936372;28;206942;-67
2022/05/09 03:36:40;;;;;;;17.02;5.47;;;5.40;99.90;;;;;;4986444;28;20057;-68
2022/05/09 03:39:07;;;;;;;16.55;5.13;;;5.50;99.90;;;;;;4917330;28;248784;-68
2022/05/09 03:41:33;;;;;;;16.00;5.50;;;5.40;99.90;;;;;;4975353;28;20050;-68
2022/05/09 03:43:59;;;;;;;17.83;6.00;;;5.40;99.90;;;;;;4916703;28;209477;-69
2022/05/09 03:46:25;;;;;;;18.80;5.75;;;5.40;99.90;;;;;;4992129;28;20503;-67
2022/05/09 03:48:51;;;;;;;20.45;6.45;;;5.40;99.90;;;;;;4928599;28;210957;-68
2022/05/09 03:51:18;;;;;;;18.60;5.55;;;5.40;99.90;;;;;;4971549;28;223435;-68
2022/05/09 03:53:45;;;;;;;17.88;6.43;;;5.40;99.90;;;;;;4934227;28;214887;-68
2022/05/09 03:56:12;;;;;;;16.65;6.13;;;5.40;99.90;;;;;;4979766;28;106575;-68
2022/05/09 03:58:39;;;;;;;21.07;6.17;;;5.40;99.90;;;;;;4926971;28;210340;-68
2022/05/09 04:01:08;;;;;;;23.00;6.43;;;5.40;99.90;;;;;;4965730;28;170909;-68
2022/05/09 04:03:34;;;;;;;20.10;6.40;;;5.40;99.90;;;;;;4925243;28;210744;-67
2022/05/09 04:06:01;;;;;;;17.75;6.03;;;5.40;99.90;;;;;;4972257;28;121662;-68
2022/05/09 04:08:27;;;;;;;18.57;6.13;;;5.40;99.90;;;;;;4920623;28;211392;-67
2022/05/09 04:10:55;;;;;;;21.20;6.05;;;5.40;99.90;;;;;;4984455;28;135326;-68
2022/05/09 04:13:21;;;;;;;16.90;6.28;;;5.40;99.90;;;;;;4941759;28;207332;-67
2022/05/09 04:18:43;;;;;;;19.67;6.57;;;5.50;99.90;;;;;;4924380;28;211093;-68
2022/05/09 04:21:11;;;;;;;19.45;5.95;;;5.50;99.90;;;;;;4986635;28;62516;-68
2022/05/09 04:23:38;;;;;;;19.53;6.50;;;5.50;99.90;;;;;;4927420;28;209542;-67
2022/05/09 04:26:05;;;;;;;16.45;5.72;;;5.60;99.90;;;;;;4973415;28;175368;-68
2022/05/09 04:28:31;;;;;;;15.52;5.90;;;5.60;99.90;;;;;;4910350;28;210002;-68
2022/05/09 04:30:59;;;;;;;16.42;6.20;;;5.60;99.90;;;;;;4985846;28;68296;-68
2022/05/09 04:33:25;;;;;;;18.15;6.57;;;5.60;99.90;;;;;;4927240;28;210417;-68
2022/05/09 04:35:54;;;;;;;22.80;6.63;;;5.60;99.90;;;;;;4983786;28;253018;-68
2022/05/09 04:38:23;;;;;;;20.20;6.07;;;5.70;99.90;;;;;;4947744;28;209819;-67
2022/05/09 04:40:52;;;;;;;17.35;6.63;;;5.70;99.90;;;;;;4949832;28;206856;-68
2022/05/09 04:43:24;;;;;;;18.40;6.18;;;5.80;99.90;;;;;;4949977;28;201753;-67
2022/05/09 04:45:51;;;;;;;14.38;6.10;;;5.90;99.90;;;;;;4944633;28;216105;-68
2022/05/09 04:48:19;;;;;;;18.48;5.70;;;5.90;99.90;;;;;;4954832;28;253502;-68
2022/05/09 04:50:46;;;;;;;16.92;6.10;;;6.00;99.90;;;;;;4896261;28;122180;-68
2022/05/09 04:53:12;;;;;;;19.58;6.90;;;6.00;99.90;;;;;;4963704;28;20065;-68
2022/05/09 04:55:38;;;;;;;21.05;6.47;;;6.10;99.90;;;;;;4935552;28;222559;-68
2022/05/09 04:58:05;;;;;;;14.77;5.80;;;6.10;99.90;;;;;;4964973;28;20508;-69
2022/05/09 05:00:32;;;;;;;22.15;6.88;;;6.20;99.90;;;;;;4934322;28;217727;-69
2022/05/09 05:02:58;;;;;;;20.95;6.03;;;6.20;99.90;;;;;;4969297;28;20049;-68
2022/05/09 05:05:26;;;;;;;24.63;7.03;;;6.40;99.90;;;;;;4909459;28;236200;-68
2022/05/09 05:07:52;;;;;;;21.55;7.05;;;6.40;99.90;;;;;;4970693;28;20055;-68
2022/05/09 05:10:19;;;;;;;21.58;7.30;;;6.50;99.90;;;;;;4938406;28;210773;-69
2022/05/09 05:12:45;;;;;;;21.10;7.18;;;6.60;99.90;;;;;;4974035;28;20058;-68
2022/05/09 05:15:12;;;;;;;18.25;7.07;;;6.60;99.90;;;;;;4923619;28;210824;-69
2022/05/09 05:17:38;;;;;;;17.25;6.68;;;6.70;99.90;;;;;;4972171;28;20058;-69
2022/05/09 05:20:09;;;;;;;22.85;7.75;;;6.80;99.90;;;;;;4928419;28;209232;-69
2022/05/09 05:22:41;;;;;;;23.23;7.50;;;6.90;99.90;;;;;;4968332;28;20057;-69
2022/05/09 05:25:09;;;;;;;26.35;8.43;;;7.00;99.90;;;;;;4921663;28;206196;-69
2022/05/09 05:27:35;;;;;;;20.67;7.43;;;7.10;99.90;;;;;;4972291;28;20515;-69
2022/05/09 05:30:02;;;;;;;16.23;6.43;;;7.20;99.90;;;;;;4905947;28;344430;-69
2022/05/09 05:32:31;;;;;;;22.00;8.05;;;7.30;99.90;;;;;;4972727;28;20067;-69
2022/05/09 05:34:58;;;;;;;22.52;7.93;;;7.50;99.90;;;;;;4941549;28;146178;-69
2022/05/09 05:37:24;;;;;;;25.83;7.60;;;7.60;99.90;;;;;;4983492;28;20443;-69
2022/05/09 05:39:50;;;;;;;26.88;8.63;;;7.60;99.90;;;;;;4916043;28;209854;-69
2022/05/09 05:42:18;;;;;;;23.65;7.88;;;7.80;99.90;;;;;;4968006;28;20093;-69
2022/05/09 05:44:48;;;;;;;21.05;7.28;;;7.90;99.90;;;;;;4936844;28;210116;-69
2022/05/09 05:47:16;;;;;;;26.75;7.20;;;8.00;99.90;;;;;;4964597;28;20049;-69
2022/05/09 05:49:43;;;;;;;24.92;7.75;;;8.20;99.90;;;;;;4921270;28;214797;-69
2022/05/09 05:52:11;;;;;;;23.83;7.65;;;8.40;99.90;;;;;;4979550;28;20062;-68
2022/05/09 05:54:40;;;;;;;27.05;7.82;;;8.70;99.90;;;;;;4925556;28;214283;-69
2022/05/09 05:57:15;;;;;;;24.25;7.07;;;9.10;99.90;;;;;;4977383;28;20055;-68
2022/05/09 05:59:46;;;;;;;19.92;6.90;;;9.50;99.90;;;;;;4925902;28;212828;-68
2022/05/09 06:02:12;;;;;;;21.10;6.57;;;9.80;99.90;;;;;;4978376;28;20532;-68
2022/05/09 06:04:38;;;;;;;28.05;6.53;;;10.20;99.90;;;;;;4920827;28;209271;-68
2022/05/09 06:07:04;;;;;;;21.50;6.18;;;10.50;99.90;;;;;;4977334;28;20054;-68
2022/05/09 06:09:30;;;;;;;26.38;6.07;;;10.80;99.90;;;;;;4932119;28;213103;-69
2022/05/09 06:11:56;;;;;;;18.27;5.50;;;11.10;99.90;;;;;;4987992;28;20520;-68
2022/05/09 06:14:22;;;;;;;20.65;5.93;;;11.30;99.90;;;;;;4929213;28;206524;-68
2022/05/09 06:16:48;;;;;;;17.88;5.60;;;11.40;99.90;;;;;;4985263;28;20039;-68
2022/05/09 06:19:14;;;;;;;22.42;5.55;;;11.60;99.90;;;;;;4917542;28;248129;-68
2022/05/09 06:21:40;;;;;;;24.75;5.85;;;11.70;99.90;;;;;;4990859;28;20046;-68
2022/05/09 06:24:08;;;;;;;18.13;5.38;;;11.90;99.90;;;;;;4922241;28;211736;-68
2022/05/09 06:26:35;;;;;;;22.27;5.32;;;12.10;99.90;;;;;;4986002;28;20055;-68
2022/05/09 06:29:06;;;;;;;17.25;5.40;;;12.30;99.90;;;;;;4919197;28;210221;-68
2022/05/09 06:31:34;;;;;;;16.58;4.90;;;12.70;99.90;;;;;;4994288;28;20461;-68
2022/05/09 06:34:01;;;;;;;17.52;5.18;;;12.90;99.90;;;;;;4945864;28;207288;-67
2022/05/09 06:36:27;;;;;;;23.42;5.32;;;13.20;99.90;;;;;;4988151;28;20081;-68
2022/05/09 06:38:54;;;;;;;19.20;5.82;;;13.30;99.90;;;;;;4927951;28;205272;-65
2022/05/09 06:41:20;;;;;;;19.27;4.70;;;13.50;99.90;;;;;;4968742;28;58787;-66
2022/05/09 06:43:47;;;;;;;19.70;5.05;;;13.80;99.90;;;;;;4925916;28;213205;-66
2022/05/09 06:46:13;;;;;;;18.13;4.88;;;14.00;99.90;;;;;;4978048;28;229253;-66
2022/05/09 06:48:39;;;;;;;21.85;4.90;;;14.30;99.90;;;;;;4944583;28;214315;-66
2022/05/09 06:51:05;;;;;;;21.00;5.13;;;14.50;99.90;;;;;;4970830;28;138713;-66
2022/05/09 06:53:31;;;;;;;20.00;5.00;;;14.80;99.90;;;;;;4944546;28;209592;-66
2022/05/09 06:55:58;;;;;;;17.63;4.28;;;15.10;99.90;;;;;;4992422;28;130757;-66
2022/05/09 06:58:25;;;;;;;17.83;4.03;;;15.20;99.90;;;;;;4944481;28;210433;-66
2022/05/09 07:00:53;;;;;;;17.95;4.25;;;15.50;99.90;;;;;;4979810;28;237742;-66
2022/05/09 07:03:20;;;;;;;13.82;4.07;;;15.70;99.90;;;;;;4957638;28;210214;-66
2022/05/09 07:05:48;;;;;;;20.95;4.50;;;16.00;99.90;;;;;;4943067;28;206264;-66
2022/05/09 07:08:15;;;;;;;19.23;4.10;;;16.30;99.90;;;;;;4972139;28;20054;-66
2022/05/09 07:10:42;;;;;;;19.40;4.15;;;16.70;99.90;;;;;;4935593;28;206477;-67
2022/05/09 07:13:08;;;;;;;18.08;4.68;;;17.10;99.90;;;;;;4992964;28;20065;-67
2022/05/09 07:15:35;;;;;;;17.35;4.53;;;17.20;99.90;;;;;;4951600;28;209784;-67
2022/05/09 07:18:02;;;;;;;18.52;4.32;;;17.30;99.90;;;;;;4974227;28;20069;-67
2022/05/09 07:20:31;;;;;;;14.93;4.05;;;17.40;99.90;;;;;;4940207;28;210040;-67
2022/05/09 07:23:08;;;;;;;12.98;3.83;;;17.60;99.90;;;;;;4973646;28;20408;-68
2022/05/09 07:25:35;;;;;;;15.02;4.55;;;17.80;99.80;;;;;;4939547;28;207132;-67
2022/05/09 07:28:01;;;;;;;17.58;4.30;;;17.90;99.70;;;;;;4967469;28;20051;-67
2022/05/09 07:30:28;;;;;;;15.48;3.95;;;18.10;99.80;;;;;;4934974;28;209533;-68
2022/05/09 07:32:55;;;;;;;16.95;3.85;;;18.50;99.30;;;;;;4981615;28;20057;-67
2022/05/09 07:35:22;;;;;;;12.75;3.60;;;18.70;97.50;;;;;;4933896;28;217293;-68
2022/05/09 07:37:48;;;;;;;15.82;4.03;;;18.90;97.40;;;;;;4972760;28;20057;-68
2022/05/09 07:40:17;;;;;;;16.25;4.00;;;19.10;97.30;;;;;;4937630;28;210971;-68
2022/05/09 07:42:44;;;;;;;15.65;3.67;;;19.40;96.70;;;;;;4973987;28;20054;-68
2022/05/09 07:45:13;;;;;;;15.82;3.70;;;19.70;96.00;;;;;;4940990;28;210460;-68
2022/05/09 07:47:39;;;;;;;18.83;3.50;;;19.90;95.20;;;;;;4974131;28;20050;-68
2022/05/09 07:50:07;;;;;;;12.38;3.60;;;20.10;94.70;;;;;;4944121;28;210990;-68
2022/05/09 07:52:33;;;;;;;14.48;3.60;;;20.30;94.00;;;;;;4971171;28;20050;-68
2022/05/09 07:54:59;;;;;;;14.65;3.55;;;20.40;92.50;;;;;;4931063;28;232323;-68
2022/05/09 07:57:27;;;;;;;13.90;3.38;;;20.50;92.40;;;;;;4984680;28;20814;-68
2022/05/09 07:59:53;;;;;;;15.90;3.70;;;20.80;91.20;;;;;;4940930;28;216305;-68
2022/05/09 08:02:19;;;;;;;15.55;3.90;;;21.00;89.00;;;;;;4977916;28;20043;-68
2022/05/09 08:04:45;;;;;;;14.05;3.28;;;21.10;85.60;;;;;;4913920;28;215695;-68
2022/05/09 08:07:13;;;;;;;12.63;3.08;;;21.30;85.10;;;;;;4973118;28;20066;-68
2022/05/09 08:09:40;;;;;;;12.60;3.35;;;21.60;82.50;;;;;;4932197;28;212391;-68
2022/05/09 08:12:07;;;;;;;15.52;3.58;;;21.80;79.60;;;;;;4975499;28;20400;-68
2022/05/09 08:14:33;;;;;;;14.57;3.78;;;22.00;78.40;;;;;;4935601;28;211752;-68
2022/05/09 08:17:00;;;;;;;16.05;3.60;;;22.20;73.90;;;;;;4981202;28;20053;-68
2022/05/09 08:19:29;;;;;;;12.50;2.95;;;22.30;67.60;;;;;;4930454;28;209428;-68
2022/05/09 08:21:56;;;;;;;16.73;3.53;;;21.90;69.20;;;;;;4980916;28;20050;-68
2022/05/09 08:24:24;;;;;;;13.02;3.03;;;22.20;69.30;;;;;;4924164;28;212379;-68
2022/05/09 08:26:51;;;;;;;13.52;3.45;;;22.50;68.80;;;;;;4975670;28;20509;-68
2022/05/09 08:29:17;;;;;;;14.45;3.35;;;22.90;64.70;;;;;;4922258;28;210221;-68
2022/05/09 08:31:43;;;;;;;16.58;3.58;;;23.00;62.90;;;;;;4992792;28;20051;-68
2022/05/09 08:34:09;;;;;;;14.13;2.92;;;23.20;60.60;;;;;;4930972;28;243956;-68
2022/05/09 08:36:53;;;;;;;15.00;2.83;;;23.30;59.70;;;;;;4980309;28;20542;-68
2022/05/09 08:39:20;;;;;;;16.25;3.30;;;23.40;59.00;;;;;;4935660;28;206894;-68
2022/05/09 08:42:03;;;;;;;13.32;3.33;;;23.90;60.40;;;;;;4988321;28;20591;-68
2022/05/09 08:44:32;;;;;;;12.00;2.90;;;24.10;54.60;;;;;;4938245;28;206548;-68
2022/05/09 08:47:06;;;;;;;14.43;2.90;;;24.10;57.40;;;;;;4976284;28;20449;-68
2022/05/09 08:49:55;;;;;;;14.45;3.15;;;24.30;55.40;;;;;;4928526;28;210215;-69
2022/05/09 08:52:49;;;;;;;12.05;3.33;;;24.50;54.60;;;;;;4976542;28;20501;-68
2022/05/09 08:55:22;;;;;;;14.55;2.97;;;24.90;53.20;;;;;;4943962;28;228877;-68
2022/05/09 08:58:11;;;;;;;13.50;3.00;;;25.10;52.50;;;;;;4976591;28;20050;-68
2022/05/09 09:00:38;;;;;;;12.38;2.83;;;25.30;51.50;;;;;;4946584;28;210320;-68
2022/05/09 09:03:30;;;;;;;12.93;3.00;;;25.70;48.40;;;;;;4971394;28;20061;-68
2022/05/09 09:06:04;;;;;;;14.02;2.97;;;26.00;47.20;;;;;;4925276;28;205897;-69
2022/05/09 09:08:57;;;;;;;15.88;3.20;;;26.00;46.60;;;;;;4924467;28;225846;-68
2022/05/09 09:11:42;;;;;;;14.38;3.00;;;26.30;45.60;;;;;;4926340;28;1113010;-68
2022/05/09 09:14:36;;;;;;;13.18;2.97;;;26.00;44.70;;;;;;4931697;28;217049;-68
2022/05/09 09:17:14;;;;;;;12.15;2.80;;;26.20;43.50;;;;;;4980406;28;20054;-68
2022/05/09 09:19:43;;;;;;;12.80;3.13;;;26.30;43.60;;;;;;4925507;28;210662;-69
2022/05/09 09:22:28;;;;;;;15.02;3.10;;;26.60;43.20;;;;;;4980912;28;20053;-69
2022/05/09 09:25:15;;;;;;;15.25;3.00;;;27.00;41.30;;;;;;4936161;28;210028;-69
2022/05/09 09:27:57;;;;;;;12.95;2.50;;;27.00;40.70;;;;;;4980376;28;20057;-69
2022/05/09 09:30:25;;;;;;;13.35;2.97;;;27.20;39.40;;;;;;4948504;28;210669;-68
2022/05/09 09:32:55;;;;;;;10.55;2.60;;;27.10;40.40;;;;;;4972893;28;20066;-69
2022/05/09 09:35:40;;;;;;;11.98;3.00;;;27.20;39.70;;;;;;4943688;28;212192;-69
2022/05/09 09:38:32;;;;;;;14.05;2.55;;;27.30;39.40;;;;;;4975116;28;20496;-69
2022/05/09 09:41:35;;;;;;;13.63;3.03;;;27.10;40.40;;;;;;4944584;28;138426;-69
2022/05/09 09:44:26;;;;;;;12.60;2.58;;;27.60;39.60;;;;;;4892743;28;207009;-69
2022/05/09 09:47:10;;;;;;;11.45;2.70;;;27.90;38.90;;;;;;4941891;28;20057;-69
2022/05/09 09:49:39;;;;;;;12.30;2.85;;;28.10;40.20;;;;;;4891426;28;220723;-69
2022/05/09 09:52:53;;;;;;;15.20;3.00;;;28.30;39.00;;;;;;4947730;28;20069;-69
2022/05/09 09:55:32;;;;;;;9.95;2.50;;;28.50;37.80;;;;;;4908114;28;150589;-69
2022/05/09 09:58:18;;;;;;;11.27;2.60;;;28.90;37.00;;;;;;4926505;28;20074;-69
2022/05/09 10:00:45;;;;;;;11.93;2.35;;;29.10;35.20;;;;;;4884799;28;206067;-69
2022/05/09 10:03:29;;;;;;;9.85;2.30;;;29.30;37.00;;;;;;4947409;28;20066;-69
2022/05/09 10:05:56;;;;;;;12.10;2.53;;;29.60;35.60;;;;;;4862974;28;206186;-69
2022/05/09 10:08:37;;;;;;;11.48;2.63;;;29.40;34.50;;;;;;4917289;28;153640;-68
2022/05/09 10:11:08;;;;;;;11.05;2.30;;;29.20;35.30;;;;;;4929054;28;150499;-69
2022/05/09 10:13:49;;;;;;;10.27;2.37;;;29.20;35.50;;;;;;4907400;28;211033;-69
2022/05/09 10:16:38;;;;;;;10.60;2.33;;;29.30;36.70;;;;;;4936601;28;243721;-69
2022/05/09 10:19:10;;;;;;;11.88;2.67;;;29.60;35.40;;;;;;4922853;28;212073;-69
2022/05/09 10:24:57;;;;;;;13.35;2.65;;;29.50;34.90;;;;;;4926920;28;241036;-69
2022/05/09 10:27:23;;;;;;;10.77;2.50;;;30.00;35.80;;;;;;4945545;28;20066;-69
2022/05/09 10:29:51;;;;;;;12.32;2.58;;;29.60;34.20;;;;;;4900489;28;207040;-69
2022/05/09 10:32:23;;;;;;;11.27;2.38;;;29.40;34.80;;;;;;4927703;28;20052;-69
2022/05/09 10:35:02;;;;;;;12.50;2.58;;;29.20;34.70;;;;;;4908564;28;179124;-69
2022/05/09 10:37:40;;;;;;;11.25;2.35;;;29.10;35.60;;;;;;4945411;28;20070;-69
2022/05/09 10:40:41;;;;;;;11.25;2.55;;;29.50;35.20;;;;;;4898596;28;206395;-69
2022/05/09 10:43:36;;;;;;;10.85;2.45;;;29.80;34.30;;;;;;4939885;28;20055;-71
2022/05/09 10:46:11;;;;;;;10.52;2.45;;;30.30;35.30;;;;;;4908117;28;205703;-70
2022/05/09 10:49:29;;;;;;;9.60;2.28;;;30.60;34.80;;;;;;4899251;28;209523;-70
2022/05/09 10:52:25;;;;;;;10.50;2.20;;;31.20;35.40;;;;;;4887363;29;20048;-70
2022/05/09 10:55:01;;;;;;;10.35;2.50;;;31.30;30.20;;;;;;4812936;29;207133;-71
2022/05/09 10:58:06;;;;;;;13.80;2.30;;;30.30;32.10;;;;;;4855781;29;20069;-71
2022/05/09 11:00:37;;;;;;;9.30;2.10;;;30.10;32.50;;;;;;4812951;29;210462;-70
2022/05/09 11:03:24;;;;;;;9.57;2.10;;;30.10;34.50;;;;;;4851938;29;20054;-70
2022/05/09 11:06:13;;;;;;;9.32;2.03;;;30.40;34.00;;;;;;4772278;29;205802;-70
2022/05/09 11:08:57;;;;;;;9.47;2.20;;;30.90;33.40;;;;;;4800307;29;211965;-70
2022/05/09 11:11:42;;;;;;;8.32;2.00;;;31.20;32.60;;;;;;4845013;29;20865;-69
2022/05/09 11:14:34;;;;;;;10.35;2.20;;;31.20;32.90;;;;;;4803494;29;210763;-69
2022/05/09 11:17:18;;;;;;;13.02;2.40;;;31.50;32.40;;;;;;4846558;29;21602;-69
2022/05/09 11:19:56;;;;;;;10.48;2.50;;;31.90;32.50;;;;;;4790865;29;280511;-70
2022/05/09 11:22:37;;;;;;;10.18;2.15;;;31.80;32.00;;;;;;4842425;29;20523;-70
2022/05/09 11:25:12;;;;;;;12.80;2.30;;;32.10;32.50;;;;;;4806134;29;164587;-69
2022/05/09 11:28:06;;;;;;;11.23;2.20;;;32.40;31.80;;;;;;4870319;29;20212;-71
2022/05/09 11:30:42;;;;;;;9.15;1.98;;;32.50;31.50;;;;;;4875747;28;208059;-70
2022/05/09 11:33:37;;;;;;;8.57;2.00;;;32.60;33.00;;;;;;4971936;28;20062;-70
2022/05/09 11:36:36;;;;;;;9.82;2.28;;;33.00;32.60;;;;;;4927957;28;207422;-70
2022/05/09 11:39:34;;;;;;;10.15;2.35;;;33.00;30.60;;;;;;4921790;28;223275;-69
2022/05/09 11:45:28;;;;;;;11.50;2.08;;;32.50;32.40;;;;;;4910531;28;230965;-69
2022/05/09 11:48:08;;;;;;;11.43;2.10;;;32.70;31.50;;;;;;4949125;28;20551;-71
2022/05/09 11:50:56;;;;;;;9.20;2.25;;;32.00;32.40;;;;;;4913236;28;217071;-71
2022/05/09 11:53:26;;;;;;;10.82;2.00;;;31.70;30.70;;;;;;4928940;28;206026;-69
2022/05/09 11:55:53;;;;;;;10.40;2.25;;;31.20;33.00;;;;;;4960994;28;109515;-69
2022/05/09 11:58:19;;;;;;;10.07;2.00;;;31.30;32.30;;;;;;4937264;28;201266;-69
2022/05/09 12:00:48;;;;;;;10.65;2.67;;;31.60;33.60;;;;;;4917032;28;207836;-69
2022/05/09 12:03:35;;;;;;;12.52;2.50;;;32.10;33.40;;;;;;4954623;28;20558;-69
2022/05/09 12:06:04;;;;;;;10.60;2.28;;;32.40;33.80;;;;;;4878953;28;208319;-69
2022/05/09 12:08:47;;;;;;;10.32;2.50;;;32.40;32.10;;;;;;4906862;28;208310;-69
2022/05/09 12:11:25;;;;;;;11.27;2.50;;;32.30;32.00;;;;;;4943017;28;77494;-69
2022/05/09 12:13:54;;;;;;;10.00;2.22;;;32.00;31.20;;;;;;4905540;28;197660;-70
2022/05/09 12:16:35;;;;;;;10.93;2.20;;;31.80;32.60;;;;;;4933129;28;80501;-70
2022/05/09 12:19:13;;;;;;;11.13;2.70;;;32.20;31.40;;;;;;4879872;28;207632;-70
2022/05/09 12:21:41;;;;;;;10.60;2.58;;;31.90;32.90;;;;;;4940029;28;20050;-70
2022/05/09 12:24:18;;;;;;;15.35;2.70;;;31.00;32.10;;;;;;4909218;28;217488;-69
2022/05/09 12:26:49;;;;;;;12.10;2.42;;;31.20;32.10;;;;;;4978337;28;20062;-69
2022/05/09 12:29:16;;;;;;;9.85;2.47;;;31.30;32.80;;;;;;4932509;28;209422;-69
2022/05/09 12:31:56;;;;;;;9.10;2.30;;;31.60;31.70;;;;;;5001219;28;20058;-69
2022/05/09 12:34:43;;;;;;;12.95;2.33;;;31.40;30.80;;;;;;4925737;28;208554;-68
2022/05/09 12:37:11;;;;;;;9.20;2.20;;;30.20;30.90;;;;;;4981154;28;20535;-69
2022/05/09 12:39:54;;;;;;;9.52;2.22;;;29.90;32.80;;;;;;4943685;28;210345;-69
2022/05/09 12:42:36;;;;;;;9.25;2.17;;;30.50;33.40;;;;;;4970696;28;20062;-69
2022/05/09 12:45:05;;;;;;;8.55;2.08;;;31.20;33.60;;;;;;4941184;28;240007;-69
2022/05/09 12:47:34;;;;;;;10.95;2.20;;;31.70;33.60;;;;;;4985015;28;20492;-68
2022/05/09 12:50:32;;;;;;;10.45;2.20;;;31.80;32.60;;;;;;4945884;28;210191;-69
2022/05/09 12:53:03;;;;;;;11.35;2.60;;;32.10;33.00;;;;;;5008850;28;20414;-69
2022/05/09 12:55:57;;;;;;;11.77;2.40;;;32.10;32.10;;;;;;4938168;28;207310;-69
2022/05/09 12:58:26;;;;;;;10.27;2.27;;;31.80;31.30;;;;;;4930027;28;209974;-69
2022/05/09 13:00:58;;;;;;;9.90;2.45;;;31.10;32.20;;;;;;4987328;28;30046;-69
2022/05/09 13:03:25;;;;;;;8.47;2.33;;;31.30;33.50;;;;;;4940916;28;209487;-69
2022/05/09 13:05:51;;;;;;;11.52;2.42;;;31.80;33.40;;;;;;4957705;28;154915;-69
2022/05/09 13:08:17;;;;;;;10.85;2.60;;;31.60;32.00;;;;;;4964696;28;208666;-69
2022/05/09 13:10:56;;;;;;;11.40;2.72;;;31.80;32.80;;;;;;4978374;28;106578;-69